Aviation Digital Data Service (ADDS)

Output produced by METARs form (1849 UTC 18 April 2019)
found at http://www.aviationweather.gov/metar/data/
 
METAR text: OIIE 181830Z 18008KT 9999 BKN090 17/07 Q1014
Conditions at: OIIE (IMAM KHOMEINI , IR) observed 1830 UTC 18 April 2019
Temperature: 17.0°C (63°F)
Dewpoint: 7.0°C (45°F) [RH = 52%]
Pressure (altimeter): 29.94 inches Hg (1014.0 mb)
Winds: from the S (180 degrees) at 9 MPH (8 knots; 4.1 m/s)
Visibility: 6 or more miles (10+ km)
Ceiling: 9000 feet AGL
Clouds: broken clouds at 9000 feet AGL
Weather: no significant weather observed at this time

METAR text: OIIE 181800Z 18008KT 9999 BKN090 BKN200 17/06 Q1014
Conditions at: OIIE (IMAM KHOMEINI , IR) observed 1800 UTC 18 April 2019
Temperature: 17.0°C (63°F)
Dewpoint: 6.0°C (43°F) [RH = 48%]
Pressure (altimeter): 29.94 inches Hg (1014.0 mb)
Winds: from the S (180 degrees) at 9 MPH (8 knots; 4.1 m/s)
Visibility: 6 or more miles (10+ km)
Ceiling: 9000 feet AGL
Clouds: broken clouds at 9000 feet AGL
broken clouds at 20000 feet AGL
Weather: no significant weather observed at this time

METAR text: OIIE 181730Z 11004KT 9999 BKN090 BKN200 17/06 Q1014
Conditions at: OIIE (IMAM KHOMEINI , IR) observed 1730 UTC 18 April 2019
Temperature: 17.0°C (63°F)
Dewpoint: 6.0°C (43°F) [RH = 48%]
Pressure (altimeter): 29.94 inches Hg (1014.0 mb)
Winds: from the ESE (110 degrees) at 5 MPH (4 knots; 2.1 m/s)
Visibility: 6 or more miles (10+ km)
Ceiling: 9000 feet AGL
Clouds: broken clouds at 9000 feet AGL
broken clouds at 20000 feet AGL
Weather: no significant weather observed at this time

METAR text: OIIE 181700Z 04006KT 9999 FEW035 SCT090 BKN200 16/06 Q1014
Conditions at: OIIE (IMAM KHOMEINI , IR) observed 1700 UTC 18 April 2019
Temperature: 16.0°C (61°F)
Dewpoint: 6.0°C (43°F) [RH = 51%]
Pressure (altimeter): 29.94 inches Hg (1014.0 mb)
Winds: from the NE (40 degrees) at 7 MPH (6 knots; 3.1 m/s)
Visibility: 6 or more miles (10+ km)
Ceiling: 20000 feet AGL
Clouds: few clouds at 3500 feet AGL
scattered clouds at 9000 feet AGL
broken clouds at 20000 feet AGL
Weather: no significant weather observed at this time

METAR text: OIIE 181630Z 03008KT 9999 FEW035 SCT090 BKN200 16/07 Q1014
Conditions at: OIIE (IMAM KHOMEINI , IR) observed 1630 UTC 18 April 2019
Temperature: 16.0°C (61°F)
Dewpoint: 7.0°C (45°F) [RH = 55%]
Pressure (altimeter): 29.94 inches Hg (1014.0 mb)
Winds: from the NNE (30 degrees) at 9 MPH (8 knots; 4.1 m/s)
Visibility: 6 or more miles (10+ km)
Ceiling: 20000 feet AGL
Clouds: few clouds at 3500 feet AGL
scattered clouds at 9000 feet AGL
broken clouds at 20000 feet AGL
Weather: no significant weather observed at this time

METAR text: OIIE 181600Z 04008KT 9999 SCT035 FEW040CB BKN200 17/05 Q1013
Conditions at: OIIE (IMAM KHOMEINI , IR) observed 1600 UTC 18 April 2019
Temperature: 17.0°C (63°F)
Dewpoint: 5.0°C (41°F) [RH = 45%]
Pressure (altimeter): 29.91 inches Hg (1013.0 mb)
Winds: from the NE (40 degrees) at 9 MPH (8 knots; 4.1 m/s)
Visibility: 6 or more miles (10+ km)
Ceiling: 20000 feet AGL
Clouds: scattered clouds at 3500 feet AGL
few clouds at 4000 feet AGL
broken clouds at 20000 feet AGL
Weather: no significant weather observed at this time

METAR text: OIIE 181530Z 06008KT 9999 SCT035 FEW040CB BKN200 18/05 Q1013
Conditions at: OIIE (IMAM KHOMEINI , IR) observed 1530 UTC 18 April 2019
Temperature: 18.0°C (64°F)
Dewpoint: 5.0°C (41°F) [RH = 42%]
Pressure (altimeter): 29.91 inches Hg (1013.0 mb)
Winds: from the ENE (60 degrees) at 9 MPH (8 knots; 4.1 m/s)
Visibility: 6 or more miles (10+ km)
Ceiling: 20000 feet AGL
Clouds: scattered clouds at 3500 feet AGL
few clouds at 4000 feet AGL
broken clouds at 20000 feet AGL
Weather: no significant weather observed at this time

METAR text: OIIE 181500Z 08010KT 9999 FEW035CB BKN100 BKN200 18/07 Q1014 TEMPO SHRA
Conditions at: OIIE (IMAM KHOMEINI , IR) observed 1500 UTC 18 April 2019
Temperature: 18.0°C (64°F)
Dewpoint: 7.0°C (45°F) [RH = 49%]
Pressure (altimeter): 29.94 inches Hg (1014.0 mb)
Winds: from the E (80 degrees) at 12 MPH (10 knots; 5.1 m/s)
Visibility: 6 or more miles (10+ km)
Ceiling: 10000 feet AGL
Clouds: few clouds at 3500 feet AGL
broken clouds at 10000 feet AGL
broken clouds at 20000 feet AGL
Weather: no significant weather observed at this time

METAR text: OIIE 181430Z 11008KT 9999 FEW035CB BKN100 OVC200 19/05 Q1013
Conditions at: OIIE (IMAM KHOMEINI , IR) observed 1430 UTC 18 April 2019
Temperature: 19.0°C (66°F)
Dewpoint: 5.0°C (41°F) [RH = 40%]
Pressure (altimeter): 29.91 inches Hg (1013.0 mb)
Winds: from the ESE (110 degrees) at 9 MPH (8 knots; 4.1 m/s)
Visibility: 6 or more miles (10+ km)
Ceiling: 10000 feet AGL
Clouds: few clouds at 3500 feet AGL
broken clouds at 10000 feet AGL
overcast cloud deck at 20000 feet AGL
Weather: no significant weather observed at this time

METAR text: OIIE 181400Z 12004KT 9999 FEW035CB BKN100 BKN200 20/04 Q1013
Conditions at: OIIE (IMAM KHOMEINI , IR) observed 1400 UTC 18 April 2019
Temperature: 20.0°C (68°F)
Dewpoint: 4.0°C (39°F) [RH = 35%]
Pressure (altimeter): 29.91 inches Hg (1013.0 mb)
Winds: from the ESE (120 degrees) at 5 MPH (4 knots; 2.1 m/s)
Visibility: 6 or more miles (10+ km)
Ceiling: 10000 feet AGL
Clouds: few clouds at 3500 feet AGL
broken clouds at 10000 feet AGL
broken clouds at 20000 feet AGL
Weather: no significant weather observed at this time

METAR text: OIIE 181330Z 04006KT 9999 FEW035CB BKN100 BKN200 20/04 Q1014
Conditions at: OIIE (IMAM KHOMEINI , IR) observed 1330 UTC 18 April 2019
Temperature: 20.0°C (68°F)
Dewpoint: 4.0°C (39°F) [RH = 35%]
Pressure (altimeter): 29.94 inches Hg (1014.0 mb)
Winds: from the NE (40 degrees) at 7 MPH (6 knots; 3.1 m/s)
Visibility: 6 or more miles (10+ km)
Ceiling: 10000 feet AGL
Clouds: few clouds at 3500 feet AGL
broken clouds at 10000 feet AGL
broken clouds at 20000 feet AGL
Weather: no significant weather observed at this time

METAR text: OIIE 181300Z 25004KT 9999 FEW035CB BKN100 BKN200 21/03 Q1013 TEMPO 25014G24KT 5000 SHRA
Conditions at: OIIE (IMAM KHOMEINI , IR) observed 1300 UTC 18 April 2019
Temperature: 21.0°C (70°F)
Dewpoint: 3.0°C (37°F) [RH = 30%]
Pressure (altimeter): 29.91 inches Hg (1013.0 mb)
Winds: from the WSW (250 degrees) at 5 MPH (4 knots; 2.1 m/s)
Visibility: 6 or more miles (10+ km)
Ceiling: 10000 feet AGL
Clouds: few clouds at 3500 feet AGL
broken clouds at 10000 feet AGL
broken clouds at 20000 feet AGL
Weather: no significant weather observed at this time

METAR text: OIIE 181230Z 28004KT 9999 FEW040 SCT100 BKN200 22/01 Q1013
Conditions at: OIIE (IMAM KHOMEINI , IR) observed 1230 UTC 18 April 2019
Temperature: 22.0°C (72°F)
Dewpoint: 1.0°C (34°F) [RH = 25%]
Pressure (altimeter): 29.91 inches Hg (1013.0 mb)
Winds: from the W (280 degrees) at 5 MPH (4 knots; 2.1 m/s)
Visibility: 6 or more miles (10+ km)
Ceiling: 20000 feet AGL
Clouds: few clouds at 4000 feet AGL
scattered clouds at 10000 feet AGL
broken clouds at 20000 feet AGL
Weather: no significant weather observed at this time

METAR text: OIIE 181200Z 36006KT 9999 FEW040 SCT100 BKN200 23/01 Q1013 TEMPO 29016G26KT SHRA
Conditions at: OIIE (IMAM KHOMEINI , IR) observed 1200 UTC 18 April 2019
Temperature: 23.0°C (73°F)
Dewpoint: 1.0°C (34°F) [RH = 23%]
Pressure (altimeter): 29.91 inches Hg (1013.0 mb)
Winds: from the N (360 degrees) at 7 MPH (6 knots; 3.1 m/s)
Visibility: 6 or more miles (10+ km)
Ceiling: 20000 feet AGL
Clouds: few clouds at 4000 feet AGL
scattered clouds at 10000 feet AGL
broken clouds at 20000 feet AGL
Weather: no significant weather observed at this time

METAR text: OIIE 181130Z 01006KT 9999 FEW040 SCT100 BKN200 23/02 Q1013
Conditions at: OIIE (IMAM KHOMEINI , IR) observed 1130 UTC 18 April 2019
Temperature: 23.0°C (73°F)
Dewpoint: 2.0°C (36°F) [RH = 25%]
Pressure (altimeter): 29.91 inches Hg (1013.0 mb)
Winds: from the N (10 degrees) at 7 MPH (6 knots; 3.1 m/s)
Visibility: 6 or more miles (10+ km)
Ceiling: 20000 feet AGL
Clouds: few clouds at 4000 feet AGL
scattered clouds at 10000 feet AGL
broken clouds at 20000 feet AGL
Weather: no significant weather observed at this time

METAR text: OIIE 181100Z 02006KT 9999 FEW040 SCT100 BKN200 23/01 Q1013
Conditions at: OIIE (IMAM KHOMEINI , IR) observed 1100 UTC 18 April 2019
Temperature: 23.0°C (73°F)
Dewpoint: 1.0°C (34°F) [RH = 23%]
Pressure (altimeter): 29.91 inches Hg (1013.0 mb)
Winds: from the NNE (20 degrees) at 7 MPH (6 knots; 3.1 m/s)
Visibility: 6 or more miles (10+ km)
Ceiling: 20000 feet AGL
Clouds: few clouds at 4000 feet AGL
scattered clouds at 10000 feet AGL
broken clouds at 20000 feet AGL
Weather: no significant weather observed at this time

METAR text: OIIE 181030Z 32008KT 9999 FEW040 SCT100 BKN200 23/02 Q1013
Conditions at: OIIE (IMAM KHOMEINI , IR) observed 1030 UTC 18 April 2019
Temperature: 23.0°C (73°F)
Dewpoint: 2.0°C (36°F) [RH = 25%]
Pressure (altimeter): 29.91 inches Hg (1013.0 mb)
Winds: from the NW (320 degrees) at 9 MPH (8 knots; 4.1 m/s)
Visibility: 6 or more miles (10+ km)
Ceiling: 20000 feet AGL
Clouds: few clouds at 4000 feet AGL
scattered clouds at 10000 feet AGL
broken clouds at 20000 feet AGL
Weather: no significant weather observed at this time

METAR text: OIIE 181000Z 34004KT 9999 FEW040 SCT100 BKN200 22/03 Q1013
Conditions at: OIIE (IMAM KHOMEINI , IR) observed 1000 UTC 18 April 2019
Temperature: 22.0°C (72°F)
Dewpoint: 3.0°C (37°F) [RH = 29%]
Pressure (altimeter): 29.91 inches Hg (1013.0 mb)
Winds: from the NNW (340 degrees) at 5 MPH (4 knots; 2.1 m/s)
Visibility: 6 or more miles (10+ km)
Ceiling: 20000 feet AGL
Clouds: few clouds at 4000 feet AGL
scattered clouds at 10000 feet AGL
broken clouds at 20000 feet AGL
Weather: no significant weather observed at this time

METAR text: OIIE 180930Z 01008KT 9999 FEW040 SCT100 BKN200 23/03 Q1013
Conditions at: OIIE (IMAM KHOMEINI , IR) observed 0930 UTC 18 April 2019
Temperature: 23.0°C (73°F)
Dewpoint: 3.0°C (37°F) [RH = 27%]
Pressure (altimeter): 29.91 inches Hg (1013.0 mb)
Winds: from the N (10 degrees) at 9 MPH (8 knots; 4.1 m/s)
Visibility: 6 or more miles (10+ km)
Ceiling: 20000 feet AGL
Clouds: few clouds at 4000 feet AGL
scattered clouds at 10000 feet AGL
broken clouds at 20000 feet AGL
Weather: no significant weather observed at this time

METAR text: OIIE 180900Z 34010KT 9999 FEW040 SCT100 OVC200 22/03 Q1013
Conditions at: OIIE (IMAM KHOMEINI , IR) observed 0900 UTC 18 April 2019
Temperature: 22.0°C (72°F)
Dewpoint: 3.0°C (37°F) [RH = 29%]
Pressure (altimeter): 29.91 inches Hg (1013.0 mb)
Winds: from the NNW (340 degrees) at 12 MPH (10 knots; 5.1 m/s)
Visibility: 6 or more miles (10+ km)
Ceiling: 20000 feet AGL
Clouds: few clouds at 4000 feet AGL
scattered clouds at 10000 feet AGL
overcast cloud deck at 20000 feet AGL
Weather: no significant weather observed at this time

METAR text: OIIE 180830Z 33012KT 9999 FEW040 SCT100 BKN200 22/03 Q1014
Conditions at: OIIE (IMAM KHOMEINI , IR) observed 0830 UTC 18 April 2019
Temperature: 22.0°C (72°F)
Dewpoint: 3.0°C (37°F) [RH = 29%]
Pressure (altimeter): 29.94 inches Hg (1014.0 mb)
Winds: from the NNW (330 degrees) at 14 MPH (12 knots; 6.2 m/s)
Visibility: 6 or more miles (10+ km)
Ceiling: 20000 feet AGL
Clouds: few clouds at 4000 feet AGL
scattered clouds at 10000 feet AGL
broken clouds at 20000 feet AGL
Weather: no significant weather observed at this time

METAR text: OIIE 180800Z 32012KT 9999 FEW040 SCT100 BKN200 22/03 Q1014
Conditions at: OIIE (IMAM KHOMEINI , IR) observed 0800 UTC 18 April 2019
Temperature: 22.0°C (72°F)
Dewpoint: 3.0°C (37°F) [RH = 29%]
Pressure (altimeter): 29.94 inches Hg (1014.0 mb)
Winds: from the NW (320 degrees) at 14 MPH (12 knots; 6.2 m/s)
Visibility: 6 or more miles (10+ km)
Ceiling: 20000 feet AGL
Clouds: few clouds at 4000 feet AGL
scattered clouds at 10000 feet AGL
broken clouds at 20000 feet AGL
Weather: no significant weather observed at this time

METAR text: OIIE 180730Z 33010KT 9999 SCT100 BKN200 20/04 Q1014
Conditions at: OIIE (IMAM KHOMEINI , IR) observed 0730 UTC 18 April 2019
Temperature: 20.0°C (68°F)
Dewpoint: 4.0°C (39°F) [RH = 35%]
Pressure (altimeter): 29.94 inches Hg (1014.0 mb)
Winds: from the NNW (330 degrees) at 12 MPH (10 knots; 5.1 m/s)
Visibility: 6 or more miles (10+ km)
Ceiling: 20000 feet AGL
Clouds: scattered clouds at 10000 feet AGL
broken clouds at 20000 feet AGL
Weather: no significant weather observed at this time

METAR text: OIIE 180700Z 31010KT 9999 SCT100 OVC200 19/03 Q1014
Conditions at: OIIE (IMAM KHOMEINI , IR) observed 0700 UTC 18 April 2019
Temperature: 19.0°C (66°F)
Dewpoint: 3.0°C (37°F) [RH = 34%]
Pressure (altimeter): 29.94 inches Hg (1014.0 mb)
Winds: from the NW (310 degrees) at 12 MPH (10 knots; 5.1 m/s)
Visibility: 6 or more miles (10+ km)
Ceiling: 20000 feet AGL
Clouds: scattered clouds at 10000 feet AGL
overcast cloud deck at 20000 feet AGL
Weather: no significant weather observed at this time

METAR text: OIIE 180630Z 32014KT 9999 SCT100 OVC200 19/03 Q1014
Conditions at: OIIE (IMAM KHOMEINI , IR) observed 0630 UTC 18 April 2019
Temperature: 19.0°C (66°F)
Dewpoint: 3.0°C (37°F) [RH = 34%]
Pressure (altimeter): 29.94 inches Hg (1014.0 mb)
Winds: from the NW (320 degrees) at 16 MPH (14 knots; 7.2 m/s)
Visibility: 6 or more miles (10+ km)
Ceiling: 20000 feet AGL
Clouds: scattered clouds at 10000 feet AGL
overcast cloud deck at 20000 feet AGL
Weather: no significant weather observed at this time

METAR text: OIIE 180600Z 32012KT 9999 SCT100 OVC200 18/03 Q1013
Conditions at: OIIE (IMAM KHOMEINI , IR) observed 0600 UTC 18 April 2019
Temperature: 18.0°C (64°F)
Dewpoint: 3.0°C (37°F) [RH = 37%]
Pressure (altimeter): 29.91 inches Hg (1013.0 mb)
Winds: from the NW (320 degrees) at 14 MPH (12 knots; 6.2 m/s)
Visibility: 6 or more miles (10+ km)
Ceiling: 20000 feet AGL
Clouds: scattered clouds at 10000 feet AGL
overcast cloud deck at 20000 feet AGL
Weather: no significant weather observed at this time

METAR text: OIIE 180530Z 32008KT 9999 SCT100 BKN200 18/04 Q1013
Conditions at: OIIE (IMAM KHOMEINI , IR) observed 0530 UTC 18 April 2019
Temperature: 18.0°C (64°F)
Dewpoint: 4.0°C (39°F) [RH = 39%]
Pressure (altimeter): 29.91 inches Hg (1013.0 mb)
Winds: from the NW (320 degrees) at 9 MPH (8 knots; 4.1 m/s)
Visibility: 6 or more miles (10+ km)
Ceiling: 20000 feet AGL
Clouds: scattered clouds at 10000 feet AGL
broken clouds at 20000 feet AGL
Weather: no significant weather observed at this time

METAR text: OIIE 180500Z 31010KT 9999 SCT100 BKN200 17/04 Q1013 TEMPO 31020KT
Conditions at: OIIE (IMAM KHOMEINI , IR) observed 0500 UTC 18 April 2019
Temperature: 17.0°C (63°F)
Dewpoint: 4.0°C (39°F) [RH = 42%]
Pressure (altimeter): 29.91 inches Hg (1013.0 mb)
Winds: from the NW (310 degrees) at 12 MPH (10 knots; 5.1 m/s)
Visibility: 6 or more miles (10+ km)
Ceiling: 20000 feet AGL
Clouds: scattered clouds at 10000 feet AGL
broken clouds at 20000 feet AGL
Weather: no significant weather observed at this time

METAR text: OIIE 180430Z 31012KT 9999 SCT100 BKN200 16/04 Q1012
Conditions at: OIIE (IMAM KHOMEINI , IR) observed 0430 UTC 18 April 2019
Temperature: 16.0°C (61°F)
Dewpoint: 4.0°C (39°F) [RH = 45%]
Pressure (altimeter): 29.88 inches Hg (1012.0 mb)
Winds: from the NW (310 degrees) at 14 MPH (12 knots; 6.2 m/s)
Visibility: 6 or more miles (10+ km)
Ceiling: 20000 feet AGL
Clouds: scattered clouds at 10000 feet AGL
broken clouds at 20000 feet AGL
Weather: no significant weather observed at this time

METAR text: OIIE 180400Z 32014KT 9999 SCT100 BKN200 16/04 Q1011
Conditions at: OIIE (IMAM KHOMEINI , IR) observed 0400 UTC 18 April 2019
Temperature: 16.0°C (61°F)
Dewpoint: 4.0°C (39°F) [RH = 45%]
Pressure (altimeter): 29.85 inches Hg (1011.0 mb)
Winds: from the NW (320 degrees) at 16 MPH (14 knots; 7.2 m/s)
Visibility: 6 or more miles (10+ km)
Ceiling: 20000 feet AGL
Clouds: scattered clouds at 10000 feet AGL
broken clouds at 20000 feet AGL
Weather: no significant weather observed at this time

METAR text: OIIE 180330Z 33006KT 9999 SCT100 BKN200 16/05 Q1011
Conditions at: OIIE (IMAM KHOMEINI , IR) observed 0330 UTC 18 April 2019
Temperature: 16.0°C (61°F)
Dewpoint: 5.0°C (41°F) [RH = 48%]
Pressure (altimeter): 29.85 inches Hg (1011.0 mb)
Winds: from the NNW (330 degrees) at 7 MPH (6 knots; 3.1 m/s)
Visibility: 6 or more miles (10+ km)
Ceiling: 20000 feet AGL
Clouds: scattered clouds at 10000 feet AGL
broken clouds at 20000 feet AGL
Weather: no significant weather observed at this time

METAR text: OIIE 180300Z 01004KT 9999 SCT100 BKN200 14/05 Q1011
Conditions at: OIIE (IMAM KHOMEINI , IR) observed 0300 UTC 18 April 2019
Temperature: 14.0°C (57°F)
Dewpoint: 5.0°C (41°F) [RH = 55%]
Pressure (altimeter): 29.85 inches Hg (1011.0 mb)
Winds: from the N (10 degrees) at 5 MPH (4 knots; 2.1 m/s)
Visibility: 6 or more miles (10+ km)
Ceiling: 20000 feet AGL
Clouds: scattered clouds at 10000 feet AGL
broken clouds at 20000 feet AGL
Weather: no significant weather observed at this time

METAR text: OIIE 180230Z 11004KT 9999 SCT100 BKN200 14/05 Q1010
Conditions at: OIIE (IMAM KHOMEINI , IR) observed 0230 UTC 18 April 2019
Temperature: 14.0°C (57°F)
Dewpoint: 5.0°C (41°F) [RH = 55%]
Pressure (altimeter): 29.82 inches Hg (1010.0 mb)
Winds: from the ESE (110 degrees) at 5 MPH (4 knots; 2.1 m/s)
Visibility: 6 or more miles (10+ km)
Ceiling: 20000 feet AGL
Clouds: scattered clouds at 10000 feet AGL
broken clouds at 20000 feet AGL
Weather: no significant weather observed at this time

METAR text: OIIE 180200Z 30010KT 9999 SCT100 BKN200 14/04 Q1010
Conditions at: OIIE (IMAM KHOMEINI , IR) observed 0200 UTC 18 April 2019
Temperature: 14.0°C (57°F)
Dewpoint: 4.0°C (39°F) [RH = 51%]
Pressure (altimeter): 29.82 inches Hg (1010.0 mb)
Winds: from the WNW (300 degrees) at 12 MPH (10 knots; 5.1 m/s)
Visibility: 6 or more miles (10+ km)
Ceiling: 20000 feet AGL
Clouds: scattered clouds at 10000 feet AGL
broken clouds at 20000 feet AGL
Weather: no significant weather observed at this time

METAR text: OIIE 180130Z 28010KT 9999 SCT100 BKN200 14/04 Q1010
Conditions at: OIIE (IMAM KHOMEINI , IR) observed 0130 UTC 18 April 2019
Temperature: 14.0°C (57°F)
Dewpoint: 4.0°C (39°F) [RH = 51%]
Pressure (altimeter): 29.82 inches Hg (1010.0 mb)
Winds: from the W (280 degrees) at 12 MPH (10 knots; 5.1 m/s)
Visibility: 6 or more miles (10+ km)
Ceiling: 20000 feet AGL
Clouds: scattered clouds at 10000 feet AGL
broken clouds at 20000 feet AGL
Weather: no significant weather observed at this time

METAR text: OIIE 180100Z 31006KT 9999 SCT100 BKN200 15/04 Q1010
Conditions at: OIIE (IMAM KHOMEINI , IR) observed 0100 UTC 18 April 2019
Temperature: 15.0°C (59°F)
Dewpoint: 4.0°C (39°F) [RH = 48%]
Pressure (altimeter): 29.82 inches Hg (1010.0 mb)
Winds: from the NW (310 degrees) at 7 MPH (6 knots; 3.1 m/s)
Visibility: 6 or more miles (10+ km)
Ceiling: 20000 feet AGL
Clouds: scattered clouds at 10000 feet AGL
broken clouds at 20000 feet AGL
Weather: no significant weather observed at this time

METAR text: OIIE 180030Z 28006KT 9999 SCT100 BKN200 15/04 Q1009
Conditions at: OIIE (IMAM KHOMEINI , IR) observed 0030 UTC 18 April 2019
Temperature: 15.0°C (59°F)
Dewpoint: 4.0°C (39°F) [RH = 48%]
Pressure (altimeter): 29.79 inches Hg (1009.0 mb)
Winds: from the W (280 degrees) at 7 MPH (6 knots; 3.1 m/s)
Visibility: 6 or more miles (10+ km)
Ceiling: 20000 feet AGL
Clouds: scattered clouds at 10000 feet AGL
broken clouds at 20000 feet AGL
Weather: no significant weather observed at this time

METAR text: OIIE 180000Z 29005KT 9999 SCT100 BKN200 15/04 Q1009
Conditions at: OIIE (IMAM KHOMEINI , IR) observed 0000 UTC 18 April 2019
Temperature: 15.0°C (59°F)
Dewpoint: 4.0°C (39°F) [RH = 48%]
Pressure (altimeter): 29.79 inches Hg (1009.0 mb)
Winds: from the WNW (290 degrees) at 6 MPH (5 knots; 2.6 m/s)
Visibility: 6 or more miles (10+ km)
Ceiling: 20000 feet AGL
Clouds: scattered clouds at 10000 feet AGL
broken clouds at 20000 feet AGL
Weather: no significant weather observed at this time

METAR text: OIIE 172330Z 29004KT 9999 SCT100 BKN200 15/04 Q1009
Conditions at: OIIE (IMAM KHOMEINI , IR) observed 2330 UTC 17 April 2019
Temperature: 15.0°C (59°F)
Dewpoint: 4.0°C (39°F) [RH = 48%]
Pressure (altimeter): 29.79 inches Hg (1009.0 mb)
Winds: from the WNW (290 degrees) at 5 MPH (4 knots; 2.1 m/s)
Visibility: 6 or more miles (10+ km)
Ceiling: 20000 feet AGL
Clouds: scattered clouds at 10000 feet AGL
broken clouds at 20000 feet AGL
Weather: no significant weather observed at this time

METAR text: OIIE 172300Z 30006KT 9999 SCT100 BKN200 16/04 Q1009
Conditions at: OIIE (IMAM KHOMEINI , IR) observed 2300 UTC 17 April 2019
Temperature: 16.0°C (61°F)
Dewpoint: 4.0°C (39°F) [RH = 45%]
Pressure (altimeter): 29.79 inches Hg (1009.0 mb)
Winds: from the WNW (300 degrees) at 7 MPH (6 knots; 3.1 m/s)
Visibility: 6 or more miles (10+ km)
Ceiling: 20000 feet AGL
Clouds: scattered clouds at 10000 feet AGL
broken clouds at 20000 feet AGL
Weather: no significant weather observed at this time

METAR text: OIIE 172230Z 29006KT 9999 SCT100 BKN200 19/02 Q1009
Conditions at: OIIE (IMAM KHOMEINI , IR) observed 2230 UTC 17 April 2019
Temperature: 19.0°C (66°F)
Dewpoint: 2.0°C (36°F) [RH = 32%]
Pressure (altimeter): 29.79 inches Hg (1009.0 mb)
Winds: from the WNW (290 degrees) at 7 MPH (6 knots; 3.1 m/s)
Visibility: 6 or more miles (10+ km)
Ceiling: 20000 feet AGL
Clouds: scattered clouds at 10000 feet AGL
broken clouds at 20000 feet AGL
Weather: no significant weather observed at this time

METAR text: OIIE 172200Z 25008KT 9999 SCT100 BKN200 16/04 Q1009
Conditions at: OIIE (IMAM KHOMEINI , IR) observed 2200 UTC 17 April 2019
Temperature: 16.0°C (61°F)
Dewpoint: 4.0°C (39°F) [RH = 45%]
Pressure (altimeter): 29.79 inches Hg (1009.0 mb)
Winds: from the WSW (250 degrees) at 9 MPH (8 knots; 4.1 m/s)
Visibility: 6 or more miles (10+ km)
Ceiling: 20000 feet AGL
Clouds: scattered clouds at 10000 feet AGL
broken clouds at 20000 feet AGL
Weather: no significant weather observed at this time

METAR text: OIIE 172130Z 01004KT 9999 SCT100 BKN200 16/05 Q1009
Conditions at: OIIE (IMAM KHOMEINI , IR) observed 2130 UTC 17 April 2019
Temperature: 16.0°C (61°F)
Dewpoint: 5.0°C (41°F) [RH = 48%]
Pressure (altimeter): 29.79 inches Hg (1009.0 mb)
Winds: from the N (10 degrees) at 5 MPH (4 knots; 2.1 m/s)
Visibility: 6 or more miles (10+ km)
Ceiling: 20000 feet AGL
Clouds: scattered clouds at 10000 feet AGL
broken clouds at 20000 feet AGL
Weather: no significant weather observed at this time

METAR text: OIIE 172100Z 03004KT 9999 SCT100 BKN200 19/02 Q1009
Conditions at: OIIE (IMAM KHOMEINI , IR) observed 2100 UTC 17 April 2019
Temperature: 19.0°C (66°F)
Dewpoint: 2.0°C (36°F) [RH = 32%]
Pressure (altimeter): 29.79 inches Hg (1009.0 mb)
Winds: from the NNE (30 degrees) at 5 MPH (4 knots; 2.1 m/s)
Visibility: 6 or more miles (10+ km)
Ceiling: 20000 feet AGL
Clouds: scattered clouds at 10000 feet AGL
broken clouds at 20000 feet AGL
Weather: no significant weather observed at this time

METAR text: OIIE 172030Z VRB02KT 9999 SCT100 BKN200 18/04 Q1010
Conditions at: OIIE (IMAM KHOMEINI , IR) observed 2030 UTC 17 April 2019
Temperature: 18.0°C (64°F)
Dewpoint: 4.0°C (39°F) [RH = 39%]
Pressure (altimeter): 29.82 inches Hg (1010.0 mb)
Winds: variable direction winds at 2 MPH (2 knots; 1.0 m/s)
Visibility: 6 or more miles (10+ km)
Ceiling: 20000 feet AGL
Clouds: scattered clouds at 10000 feet AGL
broken clouds at 20000 feet AGL
Weather: no significant weather observed at this time

METAR text: OIIE 172000Z 08004KT 9999 SCT100 BKN200 18/05 Q1009
Conditions at: OIIE (IMAM KHOMEINI , IR) observed 2000 UTC 17 April 2019
Temperature: 18.0°C (64°F)
Dewpoint: 5.0°C (41°F) [RH = 42%]
Pressure (altimeter): 29.79 inches Hg (1009.0 mb)
Winds: from the E (80 degrees) at 5 MPH (4 knots; 2.1 m/s)
Visibility: 6 or more miles (10+ km)
Ceiling: 20000 feet AGL
Clouds: scattered clouds at 10000 feet AGL
broken clouds at 20000 feet AGL
Weather: no significant weather observed at this time

METAR text: OIIE 171930Z 06004KT 9999 SCT100 BKN200 18/05 Q1009
Conditions at: OIIE (IMAM KHOMEINI , IR) observed 1930 UTC 17 April 2019
Temperature: 18.0°C (64°F)
Dewpoint: 5.0°C (41°F) [RH = 42%]
Pressure (altimeter): 29.79 inches Hg (1009.0 mb)
Winds: from the ENE (60 degrees) at 5 MPH (4 knots; 2.1 m/s)
Visibility: 6 or more miles (10+ km)
Ceiling: 20000 feet AGL
Clouds: scattered clouds at 10000 feet AGL
broken clouds at 20000 feet AGL
Weather: no significant weather observed at this time

METAR text: OIIE 171900Z 04005KT 9999 SCT100 BKN200 18/05 Q1009
Conditions at: OIIE (IMAM KHOMEINI , IR) observed 1900 UTC 17 April 2019
Temperature: 18.0°C (64°F)
Dewpoint: 5.0°C (41°F) [RH = 42%]
Pressure (altimeter): 29.79 inches Hg (1009.0 mb)
Winds: from the NE (40 degrees) at 6 MPH (5 knots; 2.6 m/s)
Visibility: 6 or more miles (10+ km)
Ceiling: 20000 feet AGL
Clouds: scattered clouds at 10000 feet AGL
broken clouds at 20000 feet AGL
Weather: no significant weather observed at this time

METAR text: OIIE 171830Z 09004KT 9999 SCT100 BKN200 20/02 Q1009
Conditions at: OIIE (IMAM KHOMEINI , IR) observed 1830 UTC 17 April 2019
Temperature: 20.0°C (68°F)
Dewpoint: 2.0°C (36°F) [RH = 30%]
Pressure (altimeter): 29.79 inches Hg (1009.0 mb)
Winds: from the E (90 degrees) at 5 MPH (4 knots; 2.1 m/s)
Visibility: 6 or more miles (10+ km)
Ceiling: 20000 feet AGL
Clouds: scattered clouds at 10000 feet AGL
broken clouds at 20000 feet AGL
Weather: no significant weather observed at this time

METAR text: OIIE 171800Z 35004KT 9999 SCT100 BKN200 22/02 Q1009
Conditions at: OIIE (IMAM KHOMEINI , IR) observed 1800 UTC 17 April 2019
Temperature: 22.0°C (72°F)
Dewpoint: 2.0°C (36°F) [RH = 27%]
Pressure (altimeter): 29.79 inches Hg (1009.0 mb)
Winds: from the N (350 degrees) at 5 MPH (4 knots; 2.1 m/s)
Visibility: 6 or more miles (10+ km)
Ceiling: 20000 feet AGL
Clouds: scattered clouds at 10000 feet AGL
broken clouds at 20000 feet AGL
Weather: no significant weather observed at this time

METAR text: OIIE 171730Z 33004KT 9999 FEW040 SCT100 BKN200 21/02 Q1009
Conditions at: OIIE (IMAM KHOMEINI , IR) observed 1730 UTC 17 April 2019
Temperature: 21.0°C (70°F)
Dewpoint: 2.0°C (36°F) [RH = 28%]
Pressure (altimeter): 29.79 inches Hg (1009.0 mb)
Winds: from the NNW (330 degrees) at 5 MPH (4 knots; 2.1 m/s)
Visibility: 6 or more miles (10+ km)
Ceiling: 20000 feet AGL
Clouds: few clouds at 4000 feet AGL
scattered clouds at 10000 feet AGL
broken clouds at 20000 feet AGL
Weather: no significant weather observed at this time

METAR text: OIIE 171700Z 22010KT 9999 FEW040 SCT100 BKN200 22/01 Q1009
Conditions at: OIIE (IMAM KHOMEINI , IR) observed 1700 UTC 17 April 2019
Temperature: 22.0°C (72°F)
Dewpoint: 1.0°C (34°F) [RH = 25%]
Pressure (altimeter): 29.79 inches Hg (1009.0 mb)
Winds: from the SW (220 degrees) at 12 MPH (10 knots; 5.1 m/s)
Visibility: 6 or more miles (10+ km)
Ceiling: 20000 feet AGL
Clouds: few clouds at 4000 feet AGL
scattered clouds at 10000 feet AGL
broken clouds at 20000 feet AGL
Weather: no significant weather observed at this time

METAR text: OIIE 171630Z 22012KT 9999 FEW040 SCT100 BKN200 23/01 Q1008
Conditions at: OIIE (IMAM KHOMEINI , IR) observed 1630 UTC 17 April 2019
Temperature: 23.0°C (73°F)
Dewpoint: 1.0°C (34°F) [RH = 23%]
Pressure (altimeter): 29.76 inches Hg (1008.0 mb)
Winds: from the SW (220 degrees) at 14 MPH (12 knots; 6.2 m/s)
Visibility: 6 or more miles (10+ km)
Ceiling: 20000 feet AGL
Clouds: few clouds at 4000 feet AGL
scattered clouds at 10000 feet AGL
broken clouds at 20000 feet AGL
Weather: no significant weather observed at this time

METAR text: OIIE 171600Z 20010KT 9999 FEW040 SCT100 BKN200 24/01 Q1008
Conditions at: OIIE (IMAM KHOMEINI , IR) observed 1600 UTC 17 April 2019
Temperature: 24.0°C (75°F)
Dewpoint: 1.0°C (34°F) [RH = 22%]
Pressure (altimeter): 29.76 inches Hg (1008.0 mb)
Winds: from the SSW (200 degrees) at 12 MPH (10 knots; 5.1 m/s)
Visibility: 6 or more miles (10+ km)
Ceiling: 20000 feet AGL
Clouds: few clouds at 4000 feet AGL
scattered clouds at 10000 feet AGL
broken clouds at 20000 feet AGL
Weather: no significant weather observed at this time

METAR text: OIIE 171530Z 26004KT 9999 FEW040 SCT100 BKN200 24/02 Q1008
Conditions at: OIIE (IMAM KHOMEINI , IR) observed 1530 UTC 17 April 2019
Temperature: 24.0°C (75°F)
Dewpoint: 2.0°C (36°F) [RH = 24%]
Pressure (altimeter): 29.76 inches Hg (1008.0 mb)
Winds: from the W (260 degrees) at 5 MPH (4 knots; 2.1 m/s)
Visibility: 6 or more miles (10+ km)
Ceiling: 20000 feet AGL
Clouds: few clouds at 4000 feet AGL
scattered clouds at 10000 feet AGL
broken clouds at 20000 feet AGL
Weather: no significant weather observed at this time

METAR text: OIIE 171500Z 20006KT 9999 FEW040 SCT100 BKN200 26/01 Q1007
Conditions at: OIIE (IMAM KHOMEINI , IR) observed 1500 UTC 17 April 2019
Temperature: 26.0°C (79°F)
Dewpoint: 1.0°C (34°F) [RH = 20%]
Pressure (altimeter): 29.73 inches Hg (1007.0 mb)
Winds: from the SSW (200 degrees) at 7 MPH (6 knots; 3.1 m/s)
Visibility: 6 or more miles (10+ km)
Ceiling: 20000 feet AGL
Clouds: few clouds at 4000 feet AGL
scattered clouds at 10000 feet AGL
broken clouds at 20000 feet AGL
Weather: no significant weather observed at this time

METAR text: OIIE 171430Z 13004KT 9999 FEW040 BKN100 25/03 Q1007
Conditions at: OIIE (IMAM KHOMEINI , IR) observed 1430 UTC 17 April 2019
Temperature: 25.0°C (77°F)
Dewpoint: 3.0°C (37°F) [RH = 24%]
Pressure (altimeter): 29.73 inches Hg (1007.0 mb)
Winds: from the SE (130 degrees) at 5 MPH (4 knots; 2.1 m/s)
Visibility: 6 or more miles (10+ km)
Ceiling: 10000 feet AGL
Clouds: few clouds at 4000 feet AGL
broken clouds at 10000 feet AGL
Weather: no significant weather observed at this time

METAR text: OIIE 171400Z 09008KT 9999 FEW040 BKN100 25/03 Q1007
Conditions at: OIIE (IMAM KHOMEINI , IR) observed 1400 UTC 17 April 2019
Temperature: 25.0°C (77°F)
Dewpoint: 3.0°C (37°F) [RH = 24%]
Pressure (altimeter): 29.73 inches Hg (1007.0 mb)
Winds: from the E (90 degrees) at 9 MPH (8 knots; 4.1 m/s)
Visibility: 6 or more miles (10+ km)
Ceiling: 10000 feet AGL
Clouds: few clouds at 4000 feet AGL
broken clouds at 10000 feet AGL
Weather: no significant weather observed at this time

METAR text: OIIE 171330Z 09008KT 9999 SCT040 BKN100 26/02 Q1008 TEMPO 24016G26KT
Conditions at: OIIE (IMAM KHOMEINI , IR) observed 1330 UTC 17 April 2019
Temperature: 26.0°C (79°F)
Dewpoint: 2.0°C (36°F) [RH = 21%]
Pressure (altimeter): 29.76 inches Hg (1008.0 mb)
Winds: from the E (90 degrees) at 9 MPH (8 knots; 4.1 m/s)
Visibility: 6 or more miles (10+ km)
Ceiling: 10000 feet AGL
Clouds: scattered clouds at 4000 feet AGL
broken clouds at 10000 feet AGL
Weather: no significant weather observed at this time

METAR text: OIIE 171300Z 10006KT 9999 SCT040 BKN100 26/01 Q1008
Conditions at: OIIE (IMAM KHOMEINI , IR) observed 1300 UTC 17 April 2019
Temperature: 26.0°C (79°F)
Dewpoint: 1.0°C (34°F) [RH = 20%]
Pressure (altimeter): 29.76 inches Hg (1008.0 mb)
Winds: from the E (100 degrees) at 7 MPH (6 knots; 3.1 m/s)
Visibility: 6 or more miles (10+ km)
Ceiling: 10000 feet AGL
Clouds: scattered clouds at 4000 feet AGL
broken clouds at 10000 feet AGL
Weather: no significant weather observed at this time

METAR text: OIIE 171230Z 09010KT 9999 FEW035CB SCT040 BKN100 26/01 Q1008
Conditions at: OIIE (IMAM KHOMEINI , IR) observed 1230 UTC 17 April 2019
Temperature: 26.0°C (79°F)
Dewpoint: 1.0°C (34°F) [RH = 20%]
Pressure (altimeter): 29.76 inches Hg (1008.0 mb)
Winds: from the E (90 degrees) at 12 MPH (10 knots; 5.1 m/s)
Visibility: 6 or more miles (10+ km)
Ceiling: 10000 feet AGL
Clouds: few clouds at 3500 feet AGL
scattered clouds at 4000 feet AGL
broken clouds at 10000 feet AGL
Weather: no significant weather observed at this time

METAR text: OIIE 171200Z 09010KT 9999 FEW035CB SCT040 BKN100 26/01 Q1008
Conditions at: OIIE (IMAM KHOMEINI , IR) observed 1200 UTC 17 April 2019
Temperature: 26.0°C (79°F)
Dewpoint: 1.0°C (34°F) [RH = 20%]
Pressure (altimeter): 29.76 inches Hg (1008.0 mb)
Winds: from the E (90 degrees) at 12 MPH (10 knots; 5.1 m/s)
Visibility: 6 or more miles (10+ km)
Ceiling: 10000 feet AGL
Clouds: few clouds at 3500 feet AGL
scattered clouds at 4000 feet AGL
broken clouds at 10000 feet AGL
Weather: no significant weather observed at this time

METAR text: OIIE 171130Z 10010KT 9999 SCT040 BKN100 26/01 Q1008
Conditions at: OIIE (IMAM KHOMEINI , IR) observed 1130 UTC 17 April 2019
Temperature: 26.0°C (79°F)
Dewpoint: 1.0°C (34°F) [RH = 20%]
Pressure (altimeter): 29.76 inches Hg (1008.0 mb)
Winds: from the E (100 degrees) at 12 MPH (10 knots; 5.1 m/s)
Visibility: 6 or more miles (10+ km)
Ceiling: 10000 feet AGL
Clouds: scattered clouds at 4000 feet AGL
broken clouds at 10000 feet AGL
Weather: no significant weather observed at this time

METAR text: OIIE 171100Z 08012KT 9999 SCT040 BKN100 27/M01 Q1009
Conditions at: OIIE (IMAM KHOMEINI , IR) observed 1100 UTC 17 April 2019
Temperature: 27.0°C (81°F)
Dewpoint: -1.0°C (30°F) [RH = 16%]
Pressure (altimeter): 29.79 inches Hg (1009.0 mb)
Winds: from the E (80 degrees) at 14 MPH (12 knots; 6.2 m/s)
Visibility: 6 or more miles (10+ km)
Ceiling: 10000 feet AGL
Clouds: scattered clouds at 4000 feet AGL
broken clouds at 10000 feet AGL
Weather: no significant weather observed at this time

METAR text: OIIE 171030Z 08012KT 9999 SCT040 26/01 Q1009
Conditions at: OIIE (IMAM KHOMEINI , IR) observed 1030 UTC 17 April 2019
Temperature: 26.0°C (79°F)
Dewpoint: 1.0°C (34°F) [RH = 20%]
Pressure (altimeter): 29.79 inches Hg (1009.0 mb)
Winds: from the E (80 degrees) at 14 MPH (12 knots; 6.2 m/s)
Visibility: 6 or more miles (10+ km)
Ceiling: at least 12,000 feet AGL
Clouds: scattered clouds at 4000 feet AGL
Weather: no significant weather observed at this time

METAR text: OIIE 171000Z 10010KT 9999 SCT040 26/01 Q1009 NOSIG
Conditions at: OIIE (IMAM KHOMEINI , IR) observed 1000 UTC 17 April 2019
Temperature: 26.0°C (79°F)
Dewpoint: 1.0°C (34°F) [RH = 20%]
Pressure (altimeter): 29.79 inches Hg (1009.0 mb)
Winds: from the E (100 degrees) at 12 MPH (10 knots; 5.1 m/s)
Visibility: 6 or more miles (10+ km)
Ceiling: at least 12,000 feet AGL
Clouds: scattered clouds at 4000 feet AGL
Weather: no significant weather observed at this time

METAR text: OIIE 170930Z 10012KT 9999 FEW040 SCT100 26/01 Q1010
Conditions at: OIIE (IMAM KHOMEINI , IR) observed 0930 UTC 17 April 2019
Temperature: 26.0°C (79°F)
Dewpoint: 1.0°C (34°F) [RH = 20%]
Pressure (altimeter): 29.82 inches Hg (1010.0 mb)
Winds: from the E (100 degrees) at 14 MPH (12 knots; 6.2 m/s)
Visibility: 6 or more miles (10+ km)
Ceiling: at least 12,000 feet AGL
Clouds: few clouds at 4000 feet AGL
scattered clouds at 10000 feet AGL
Weather: no significant weather observed at this time

METAR text: OIIE 170900Z 11012KT 9999 FEW040 25/02 Q1010
Conditions at: OIIE (IMAM KHOMEINI , IR) observed 0900 UTC 17 April 2019
Temperature: 25.0°C (77°F)
Dewpoint: 2.0°C (36°F) [RH = 22%]
Pressure (altimeter): 29.82 inches Hg (1010.0 mb)
Winds: from the ESE (110 degrees) at 14 MPH (12 knots; 6.2 m/s)
Visibility: 6 or more miles (10+ km)
Ceiling: at least 12,000 feet AGL
Clouds: few clouds at 4000 feet AGL
Weather: no significant weather observed at this time

METAR text: OIIE 170830Z 11012KT 9999 FEW100 25/01 Q1011
Conditions at: OIIE (IMAM KHOMEINI , IR) observed 0830 UTC 17 April 2019
Temperature: 25.0°C (77°F)
Dewpoint: 1.0°C (34°F) [RH = 21%]
Pressure (altimeter): 29.85 inches Hg (1011.0 mb)
Winds: from the ESE (110 degrees) at 14 MPH (12 knots; 6.2 m/s)
Visibility: 6 or more miles (10+ km)
Ceiling: at least 12,000 feet AGL
Clouds: few clouds at 10000 feet AGL
Weather: no significant weather observed at this time

METAR text: OIIE 170800Z 13010KT 9999 FEW100 24/03 Q1011
Conditions at: OIIE (IMAM KHOMEINI , IR) observed 0800 UTC 17 April 2019
Temperature: 24.0°C (75°F)
Dewpoint: 3.0°C (37°F) [RH = 25%]
Pressure (altimeter): 29.85 inches Hg (1011.0 mb)
Winds: from the SE (130 degrees) at 12 MPH (10 knots; 5.1 m/s)
Visibility: 6 or more miles (10+ km)
Ceiling: at least 12,000 feet AGL
Clouds: few clouds at 10000 feet AGL
Weather: no significant weather observed at this time

METAR text: OIIE 170730Z 12010KT 9999 FEW100 24/03 Q1012
Conditions at: OIIE (IMAM KHOMEINI , IR) observed 0730 UTC 17 April 2019
Temperature: 24.0°C (75°F)
Dewpoint: 3.0°C (37°F) [RH = 25%]
Pressure (altimeter): 29.88 inches Hg (1012.0 mb)
Winds: from the ESE (120 degrees) at 12 MPH (10 knots; 5.1 m/s)
Visibility: 6 or more miles (10+ km)
Ceiling: at least 12,000 feet AGL
Clouds: few clouds at 10000 feet AGL
Weather: no significant weather observed at this time

METAR text: OIIE 170700Z 14014KT 9999 FEW100 23/02 Q1012
Conditions at: OIIE (IMAM KHOMEINI , IR) observed 0700 UTC 17 April 2019
Temperature: 23.0°C (73°F)
Dewpoint: 2.0°C (36°F) [RH = 25%]
Pressure (altimeter): 29.88 inches Hg (1012.0 mb)
Winds: from the SE (140 degrees) at 16 MPH (14 knots; 7.2 m/s)
Visibility: 6 or more miles (10+ km)
Ceiling: at least 12,000 feet AGL
Clouds: few clouds at 10000 feet AGL
Weather: no significant weather observed at this time

Forecast for: OIIE (IMAM KHOMEINI , IR)
Text: TAF OIIE 181100Z 1812/1918 31008KT 8000 FEW040 SCT100
Forecast period: 1200 to 1900 UTC 18 April 2019
Forecast type: FROM: standard forecast or significant change
Winds: from the NW (310 degrees) at 9 MPH (8 knots; 4.1 m/s)
Visibility: 5 miles (8 km)
Ceiling: at least 12,000 feet AGL
Clouds: few clouds at 4000 feet AGL
scattered clouds at 10000 feet AGL
Weather: no significant weather forecast for this period
Text: TEMPO 1812/1818 29018KT
Forecast period: 1200 to 1800 UTC 18 April 2019
Forecast type: TEMPORARY: The following changes expected for less than half the time period
Winds: from the WNW (290 degrees) at 21 MPH (18 knots; 9.3 m/s)
Visibility: missing
Ceiling: unknown
Clouds: missing
Weather: no significant weather forecast for this period
Text: BECMG 1819/1821 FEW035CB SCT040 BKN090
Forecast period: 1900 UTC 18 April 2019 to 0600 UTC 19 April 2019
Forecast type: BECOMING: Conditions expected to become as follows by 2100 UTC 18 April 2019
Winds: from the NW (310 degrees) at 9 MPH (8 knots; 4.1 m/s)
Visibility: 5 miles (8 km)
Ceiling: 9000 feet AGL
Clouds: few clouds at 3500 feet AGL
scattered clouds at 4000 feet AGL
broken clouds at 9000 feet AGL
Weather: no significant weather forecast for this period
Text: TEMPO 1900/1906 30014KT 5000 RA/BR
Forecast period: 0000 to 0600 UTC 19 April 2019
Forecast type: TEMPORARY: The following changes expected for less than half the time period
Winds: from the WNW (300 degrees) at 16 MPH (14 knots; 7.2 m/s)
Visibility: 3 miles (5 km)
Ceiling: unknown
Clouds: missing
Weather: RA BR  (moderate rain, mist)
Text: PROB30 1903/1906 TS
Forecast period: 0300 to 0600 UTC 19 April 2019
Forecast type: PROBABLE: 30 percent likelihood of the following during this time
Visibility: missing
Ceiling: unknown
Clouds: missing
Weather: TS  (thunderstorm)
Text: BECMG 1906/1908 FEW040 SCT100
Forecast period: 0600 to 1800 UTC 19 April 2019
Forecast type: BECOMING: Conditions expected to become as follows by 0800 UTC 19 April 2019
Winds: from the NW (310 degrees) at 9 MPH (8 knots; 4.1 m/s)
Visibility: 5 miles (8 km)
Ceiling: at least 12,000 feet AGL
Clouds: few clouds at 4000 feet AGL
scattered clouds at 10000 feet AGL
Weather: no significant weather forecast for this period
Text: TEMPO 1912/1918 08014KT FEW035CB SCT040 BKN100
Forecast period: 1200 to 1800 UTC 19 April 2019
Forecast type: TEMPORARY: The following changes expected for less than half the time period
Winds: from the E (80 degrees) at 16 MPH (14 knots; 7.2 m/s)
Visibility: missing
Ceiling: 10000 feet AGL
Clouds: few clouds at 3500 feet AGL
scattered clouds at 4000 feet AGL
broken clouds at 10000 feet AGL
Weather: no significant weather forecast for this period